Řízení letového provozu České republiky
OPMET data - Ceska Republika Aktualizace: 20.01.2019 10:34:07  UTC
SIGMET / AIRMET - NIL
Warning / Vystraha - NIL
AIREP - NIL
 
METAR / SPECI
METAR LKBC 201030Z AUTO 13003KT 080V160 9999 FEW013 OVC022 M02/M05 Q1013=
METAR LKCV 201000Z VRB01KT 9999 BKN027 M02/M05 Q1016 NOSIG RMK BLU BLU=
METAR LKKB 201000Z 36004KT 9000 OVC028 M03/M06 Q1016 NOSIG RMK BLU BLU=
METAR LKKU NIL
METAR LKKV 201030Z 10008KT 9999 SCT009 OVC011 M06/M07 Q1014 R29/720295 RMK REG QNH 1010=
METAR LKLN 201030Z AUTO 00000KT 9999 OVC021 M02/M05 Q1016=
METAR LKMT 201030Z 05003KT 2000 BR NSC M03/M05 Q1017 R04/31//95 TEMPO 3000 BR RMK REG QNH 1010=
METAR LKNA 201000Z 13004KT 090V160 9999 OVC019 M02/M06 Q1015 NOSIG RMK WHT WHT=
METAR LKPD 201000Z 06003KT 020V090 9999 BKN035 M01/M06 Q1017 NOSIG RMK BLU BLU=
METAR LKPR 201030Z 34004KT 300V360 8000 OVC026 M04/M06 Q1016 NOSIG RMK REG QNH 1010=
METAR LKTB 201030Z 08006KT 9999 BKN034 M00/M05 Q1016 NOSIG RMK REG QNH 1010=
METAR LKVO NIL
TAF
TAF LKBC NIL
TAF LKCV 200500Z 2006/2106 VRB02KT 9999 OVC030      TEMPO 2006/2010 4000 BR OVC012      PROB30 TEMPO 2006/2010 2500 -SN BR OVC005      BECMG 2016/2019 CAVOK      TEMPO 2100/2106 2000 MIFG BR BKN012=
TAF LKKB 200500Z 2006/2106 07004KT 9999 BKN024      BECMG 2020/2022 CAVOK      BECMG 2104/2106 5000 BR=
TAF LKKU NIL
TAF LKKV 200500Z 2006/2112 11005KT 5000 BR BKN005      TEMPO 2006/2009 BKN003      BECMG 2009/2011 9999 BKN020      BECMG 2022/2100 5000 BR SCT003      BECMG 2100/2102 1000 BR BKN002      TEMPO 2102/2108 0600 FZFG BKN001      BECMG 2109/2111 9999 BKN030=
TAF LKLN NIL
TAF AMD LKMT 200837Z 2008/2112 05004KT 2500 BR BKN017      BECMG 2010/2012 9999 BKN025      BECMG 2100/2102 5000 BR SCT015      BECMG 2102/2104 2500 BR SCT007      BECMG 2104/2106 0500 FZFG BKN004      BECMG 2108/2110 8000 BKN020=
TAF LKNA 200500Z 2006/2106 10005KT 9999 BKN025      TEMPO 2006/2012 4000 -SN BR OVC015      BECMG 2014/2016 VRB02KT SCT025      BECMG 2018/2020 CAVOK      PROB30 2021/2106 0800 FZFG BKN002=
TAF LKPD 200500Z 2006/2106 VRB02KT 9999 BKN030      BECMG 2017/2020 CAVOK      TEMPO 2100/2106 4000 BR=
TAF AMD LKPR 200700Z 2007/2112 03002KT 5000 BR OVC022      TEMPO 2007/2008 2500 BR BKN012      BECMG 2010/2012 9999 BKN027      BECMG 2018/2021 35002KT SCT020      BECMG 2100/2102 CAVOK      TEMPO 2103/2108 5000 BR BKN009=
TAF LKTB 200500Z 2006/2112 07006KT 9999 BKN045      BECMG 2021/2023 33002KT CAVOK=
TAF LKVO NIL